sensor_id;sensor_type;location;lat;lon;timestamp;P1;durP1;ratioP1;P2;durP2;ratioP2
19347;SDS011;9810;52.480;9.806;2023-11-21T00:02:21;16.30;;;6.30;;
19347;SDS011;9810;52.480;9.806;2023-11-21T00:04:48;18.43;;;8.00;;
19347;SDS011;9810;52.480;9.806;2023-11-21T00:07:15;13.43;;;7.67;;
19347;SDS011;9810;52.480;9.806;2023-11-21T00:09:43;17.43;;;7.40;;
19347;SDS011;9810;52.480;9.806;2023-11-21T00:12:10;17.90;;;7.33;;
19347;SDS011;9810;52.480;9.806;2023-11-21T00:14:40;13.67;;;7.17;;
19347;SDS011;9810;52.480;9.806;2023-11-21T00:17:07;18.27;;;7.77;;
19347;SDS011;9810;52.480;9.806;2023-11-21T00:19:35;19.30;;;7.80;;
19347;SDS011;9810;52.480;9.806;2023-11-21T00:22:02;17.37;;;8.30;;
19347;SDS011;9810;52.480;9.806;2023-11-21T00:24:31;18.38;;;10.13;;
19347;SDS011;9810;52.480;9.806;2023-11-21T00:26:58;15.33;;;7.23;;
19347;SDS011;9810;52.480;9.806;2023-11-21T00:29:26;16.47;;;7.53;;
19347;SDS011;9810;52.480;9.806;2023-11-21T00:31:54;16.53;;;8.03;;
19347;SDS011;9810;52.480;9.806;2023-11-21T00:34:22;20.07;;;8.73;;
19347;SDS011;9810;52.480;9.806;2023-11-21T00:36:49;17.87;;;8.17;;
19347;SDS011;9810;52.480;9.806;2023-11-21T00:39:16;14.93;;;8.03;;
19347;SDS011;9810;52.480;9.806;2023-11-21T00:41:43;24.70;;;8.60;;
19347;SDS011;9810;52.480;9.806;2023-11-21T00:44:11;14.47;;;8.47;;
19347;SDS011;9810;52.480;9.806;2023-11-21T00:46:38;17.10;;;8.10;;
19347;SDS011;9810;52.480;9.806;2023-11-21T00:49:07;15.67;;;8.53;;
19347;SDS011;9810;52.480;9.806;2023-11-21T00:51:34;19.67;;;8.53;;
19347;SDS011;9810;52.480;9.806;2023-11-21T00:54:02;21.47;;;8.70;;
19347;SDS011;9810;52.480;9.806;2023-11-21T00:56:29;21.53;;;9.20;;
19347;SDS011;9810;52.480;9.806;2023-11-21T00:58:56;20.57;;;9.43;;
19347;SDS011;9810;52.480;9.806;2023-11-21T01:01:24;22.80;;;9.00;;
19347;SDS011;9810;52.480;9.806;2023-11-21T01:03:51;21.30;;;9.87;;
19347;SDS011;9810;52.480;9.806;2023-11-21T01:06:20;21.97;;;10.00;;
19347;SDS011;9810;52.480;9.806;2023-11-21T01:08:48;19.17;;;9.97;;
19347;SDS011;9810;52.480;9.806;2023-11-21T01:11:15;17.80;;;8.93;;
19347;SDS011;9810;52.480;9.806;2023-11-21T01:13:42;17.77;;;9.23;;
19347;SDS011;9810;52.480;9.806;2023-11-21T01:16:10;16.67;;;9.37;;
19347;SDS011;9810;52.480;9.806;2023-11-21T01:18:38;18.90;;;10.23;;
19347;SDS011;9810;52.480;9.806;2023-11-21T01:21:05;26.50;;;10.25;;
19347;SDS011;9810;52.480;9.806;2023-11-21T01:23:34;20.53;;;9.93;;
19347;SDS011;9810;52.480;9.806;2023-11-21T01:26:01;21.13;;;9.33;;
19347;SDS011;9810;52.480;9.806;2023-11-21T01:28:29;17.77;;;9.17;;
19347;SDS011;9810;52.480;9.806;2023-11-21T01:30:56;21.57;;;10.47;;
19347;SDS011;9810;52.480;9.806;2023-11-21T01:33:23;19.80;;;10.10;;
19347;SDS011;9810;52.480;9.806;2023-11-21T01:35:51;18.30;;;8.90;;
19347;SDS011;9810;52.480;9.806;2023-11-21T01:38:20;21.83;;;9.57;;
19347;SDS011;9810;52.480;9.806;2023-11-21T01:40:48;22.47;;;9.40;;
19347;SDS011;9810;52.480;9.806;2023-11-21T01:43:16;18.77;;;10.50;;
19347;SDS011;9810;52.480;9.806;2023-11-21T01:45:43;19.90;;;9.50;;
19347;SDS011;9810;52.480;9.806;2023-11-21T01:48:12;18.90;;;9.17;;
19347;SDS011;9810;52.480;9.806;2023-11-21T01:50:41;21.57;;;10.10;;
19347;SDS011;9810;52.480;9.806;2023-11-21T01:53:10;19.90;;;10.27;;
19347;SDS011;9810;52.480;9.806;2023-11-21T01:55:38;25.93;;;11.30;;
19347;SDS011;9810;52.480;9.806;2023-11-21T01:58:08;21.80;;;10.70;;
19347;SDS011;9810;52.480;9.806;2023-11-21T02:00:36;25.47;;;12.23;;
19347;SDS011;9810;52.480;9.806;2023-11-21T02:03:03;21.03;;;11.13;;
19347;SDS011;9810;52.480;9.806;2023-11-21T02:05:32;21.57;;;10.50;;
19347;SDS011;9810;52.480;9.806;2023-11-21T02:07:59;20.27;;;10.70;;
19347;SDS011;9810;52.480;9.806;2023-11-21T02:10:27;24.43;;;10.47;;
19347;SDS011;9810;52.480;9.806;2023-11-21T02:12:56;21.93;;;11.60;;
19347;SDS011;9810;52.480;9.806;2023-11-21T02:15:25;22.23;;;10.53;;
19347;SDS011;9810;52.480;9.806;2023-11-21T02:17:53;21.30;;;11.60;;
19347;SDS011;9810;52.480;9.806;2023-11-21T02:20:23;22.27;;;10.60;;
19347;SDS011;9810;52.480;9.806;2023-11-21T02:22:53;20.87;;;10.77;;
19347;SDS011;9810;52.480;9.806;2023-11-21T02:25:23;23.80;;;12.50;;
19347;SDS011;9810;52.480;9.806;2023-11-21T02:27:50;21.93;;;11.00;;
19347;SDS011;9810;52.480;9.806;2023-11-21T02:30:19;22.37;;;10.27;;
19347;SDS011;9810;52.480;9.806;2023-11-21T02:32:46;20.20;;;10.20;;
19347;SDS011;9810;52.480;9.806;2023-11-21T02:35:14;23.93;;;10.77;;
19347;SDS011;9810;52.480;9.806;2023-11-21T02:37:42;22.13;;;11.73;;
19347;SDS011;9810;52.480;9.806;2023-11-21T02:40:11;25.57;;;9.90;;
19347;SDS011;9810;52.480;9.806;2023-11-21T02:42:42;24.17;;;11.37;;
19347;SDS011;9810;52.480;9.806;2023-11-21T02:45:10;24.63;;;11.20;;
19347;SDS011;9810;52.480;9.806;2023-11-21T02:47:38;29.60;;;11.20;;
19347;SDS011;9810;52.480;9.806;2023-11-21T02:50:05;26.53;;;12.67;;
19347;SDS011;9810;52.480;9.806;2023-11-21T02:52:33;23.40;;;11.87;;
19347;SDS011;9810;52.480;9.806;2023-11-21T02:55:01;25.93;;;11.53;;
19347;SDS011;9810;52.480;9.806;2023-11-21T02:57:30;30.10;;;11.80;;
19347;SDS011;9810;52.480;9.806;2023-11-21T02:59:57;33.33;;;13.33;;
19347;SDS011;9810;52.480;9.806;2023-11-21T03:02:25;29.50;;;13.23;;
19347;SDS011;9810;52.480;9.806;2023-11-21T03:04:52;28.87;;;12.70;;
19347;SDS011;9810;52.480;9.806;2023-11-21T03:07:19;24.80;;;12.33;;
19347;SDS011;9810;52.480;9.806;2023-11-21T03:09:46;23.23;;;12.03;;
19347;SDS011;9810;52.480;9.806;2023-11-21T03:12:14;27.63;;;12.50;;
19347;SDS011;9810;52.480;9.806;2023-11-21T03:14:43;28.50;;;13.50;;
19347;SDS011;9810;52.480;9.806;2023-11-21T03:17:10;25.27;;;13.13;;
19347;SDS011;9810;52.480;9.806;2023-11-21T03:19:41;25.73;;;12.07;;
19347;SDS011;9810;52.480;9.806;2023-11-21T03:22:08;31.80;;;14.10;;
19347;SDS011;9810;52.480;9.806;2023-11-21T03:24:36;23.43;;;12.57;;
19347;SDS011;9810;52.480;9.806;2023-11-21T03:27:04;24.87;;;13.13;;
19347;SDS011;9810;52.480;9.806;2023-11-21T03:29:31;28.63;;;14.00;;
19347;SDS011;9810;52.480;9.806;2023-11-21T03:32:00;23.17;;;13.00;;
19347;SDS011;9810;52.480;9.806;2023-11-21T03:34:27;28.07;;;13.37;;
19347;SDS011;9810;52.480;9.806;2023-11-21T03:36:55;27.87;;;13.00;;
19347;SDS011;9810;52.480;9.806;2023-11-21T03:39:22;27.67;;;12.50;;
19347;SDS011;9810;52.480;9.806;2023-11-21T03:41:50;25.33;;;13.30;;
19347;SDS011;9810;52.480;9.806;2023-11-21T03:44:18;30.87;;;13.93;;
19347;SDS011;9810;52.480;9.806;2023-11-21T03:46:45;25.93;;;12.53;;
19347;SDS011;9810;52.480;9.806;2023-11-21T03:49:14;27.80;;;14.67;;
19347;SDS011;9810;52.480;9.806;2023-11-21T03:51:41;27.77;;;14.83;;
19347;SDS011;9810;52.480;9.806;2023-11-21T03:54:08;34.57;;;15.57;;
19347;SDS011;9810;52.480;9.806;2023-11-21T03:56:36;30.00;;;16.13;;
19347;SDS011;9810;52.480;9.806;2023-11-21T03:59:02;33.27;;;15.67;;
19347;SDS011;9810;52.480;9.806;2023-11-21T04:01:29;29.43;;;14.33;;
19347;SDS011;9810;52.480;9.806;2023-11-21T04:03:56;31.33;;;15.00;;
19347;SDS011;9810;52.480;9.806;2023-11-21T04:06:26;31.80;;;15.70;;
19347;SDS011;9810;52.480;9.806;2023-11-21T04:08:53;32.43;;;14.57;;
19347;SDS011;9810;52.480;9.806;2023-11-21T04:11:20;28.07;;;15.30;;
19347;SDS011;9810;52.480;9.806;2023-11-21T04:13:47;37.70;;;17.10;;
19347;SDS011;9810;52.480;9.806;2023-11-21T04:16:15;32.07;;;15.17;;
19347;SDS011;9810;52.480;9.806;2023-11-21T04:18:43;30.30;;;16.43;;
19347;SDS011;9810;52.480;9.806;2023-11-21T04:21:10;30.20;;;15.20;;
19347;SDS011;9810;52.480;9.806;2023-11-21T04:23:39;28.57;;;15.60;;
19347;SDS011;9810;52.480;9.806;2023-11-21T04:26:06;27.27;;;15.47;;
19347;SDS011;9810;52.480;9.806;2023-11-21T04:28:34;36.07;;;16.33;;
19347;SDS011;9810;52.480;9.806;2023-11-21T04:31:01;26.10;;;15.73;;
19347;SDS011;9810;52.480;9.806;2023-11-21T04:33:28;27.67;;;15.27;;
19347;SDS011;9810;52.480;9.806;2023-11-21T04:35:56;35.03;;;16.37;;
19347;SDS011;9810;52.480;9.806;2023-11-21T04:38:23;30.90;;;15.90;;
19347;SDS011;9810;52.480;9.806;2023-11-21T04:40:52;30.90;;;16.27;;
19347;SDS011;9810;52.480;9.806;2023-11-21T04:43:20;32.23;;;17.03;;
19347;SDS011;9810;52.480;9.806;2023-11-21T04:45:47;30.20;;;16.57;;
19347;SDS011;9810;52.480;9.806;2023-11-21T04:48:14;32.23;;;15.83;;
19347;SDS011;9810;52.480;9.806;2023-11-21T04:50:41;32.10;;;16.80;;
19347;SDS011;9810;52.480;9.806;2023-11-21T04:53:09;28.27;;;15.00;;
19347;SDS011;9810;52.480;9.806;2023-11-21T04:55:38;25.37;;;14.27;;
19347;SDS011;9810;52.480;9.806;2023-11-21T04:58:07;24.97;;;14.37;;
19347;SDS011;9810;52.480;9.806;2023-11-21T05:00:34;27.47;;;14.10;;
19347;SDS011;9810;52.480;9.806;2023-11-21T05:03:02;25.83;;;12.77;;
19347;SDS011;9810;52.480;9.806;2023-11-21T05:05:30;29.77;;;15.67;;
19347;SDS011;9810;52.480;9.806;2023-11-21T05:07:57;22.80;;;14.20;;
19347;SDS011;9810;52.480;9.806;2023-11-21T05:10:23;27.47;;;13.47;;
19347;SDS011;9810;52.480;9.806;2023-11-21T05:12:51;24.13;;;12.03;;
19347;SDS011;9810;52.480;9.806;2023-11-21T05:15:19;22.63;;;11.97;;
19347;SDS011;9810;52.480;9.806;2023-11-21T05:17:48;18.27;;;11.60;;
19347;SDS011;9810;52.480;9.806;2023-11-21T05:20:17;18.77;;;11.73;;
19347;SDS011;9810;52.480;9.806;2023-11-21T05:22:46;25.37;;;11.63;;
19347;SDS011;9810;52.480;9.806;2023-11-21T05:25:13;21.83;;;11.13;;
19347;SDS011;9810;52.480;9.806;2023-11-21T05:27:42;24.87;;;12.57;;
19347;SDS011;9810;52.480;9.806;2023-11-21T05:30:09;22.33;;;10.83;;
19347;SDS011;9810;52.480;9.806;2023-11-21T05:32:39;19.03;;;10.73;;
19347;SDS011;9810;52.480;9.806;2023-11-21T05:35:07;17.77;;;10.10;;
19347;SDS011;9810;52.480;9.806;2023-11-21T05:37:39;19.80;;;10.97;;
19347;SDS011;9810;52.480;9.806;2023-11-21T05:40:06;19.23;;;11.53;;
19347;SDS011;9810;52.480;9.806;2023-11-21T05:42:35;15.27;;;8.80;;
19347;SDS011;9810;52.480;9.806;2023-11-21T05:45:03;16.93;;;9.53;;
19347;SDS011;9810;52.480;9.806;2023-11-21T05:47:35;16.80;;;8.37;;
19347;SDS011;9810;52.480;9.806;2023-11-21T05:50:05;13.33;;;8.30;;
19347;SDS011;9810;52.480;9.806;2023-11-21T05:52:35;14.33;;;7.97;;
19347;SDS011;9810;52.480;9.806;2023-11-21T05:55:02;12.77;;;7.80;;
19347;SDS011;9810;52.480;9.806;2023-11-21T05:57:32;13.23;;;7.97;;
19347;SDS011;9810;52.480;9.806;2023-11-21T06:00:03;15.83;;;9.27;;
19347;SDS011;9810;52.480;9.806;2023-11-21T06:02:36;11.77;;;7.10;;
19347;SDS011;9810;52.480;9.806;2023-11-21T06:05:06;10.67;;;6.40;;
19347;SDS011;9810;52.480;9.806;2023-11-21T06:07:34;12.53;;;6.93;;
19347;SDS011;9810;52.480;9.806;2023-11-21T06:10:01;11.43;;;5.50;;
19347;SDS011;9810;52.480;9.806;2023-11-21T06:12:31;7.37;;;3.83;;
19347;SDS011;9810;52.480;9.806;2023-11-21T06:15:00;5.73;;;3.23;;
19347;SDS011;9810;52.480;9.806;2023-11-21T06:17:29;5.27;;;2.37;;
19347;SDS011;9810;52.480;9.806;2023-11-21T06:19:56;2.47;;;1.90;;
19347;SDS011;9810;52.480;9.806;2023-11-21T06:22:25;2.70;;;1.87;;
19347;SDS011;9810;52.480;9.806;2023-11-21T06:24:53;4.33;;;2.23;;
19347;SDS011;9810;52.480;9.806;2023-11-21T06:27:20;3.47;;;1.97;;
19347;SDS011;9810;52.480;9.806;2023-11-21T06:29:50;3.27;;;1.80;;
19347;SDS011;9810;52.480;9.806;2023-11-21T06:32:17;3.50;;;2.37;;
19347;SDS011;9810;52.480;9.806;2023-11-21T06:34:45;2.83;;;2.07;;
19347;SDS011;9810;52.480;9.806;2023-11-21T06:37:13;5.73;;;3.10;;
19347;SDS011;9810;52.480;9.806;2023-11-21T06:39:41;3.80;;;2.43;;
19347;SDS011;9810;52.480;9.806;2023-11-21T06:42:09;6.13;;;2.57;;
19347;SDS011;9810;52.480;9.806;2023-11-21T06:44:36;3.30;;;2.80;;
19347;SDS011;9810;52.480;9.806;2023-11-21T06:47:04;4.83;;;3.30;;
19347;SDS011;9810;52.480;9.806;2023-11-21T06:49:31;7.13;;;3.10;;
19347;SDS011;9810;52.480;9.806;2023-11-21T06:51:59;5.03;;;3.00;;
19347;SDS011;9810;52.480;9.806;2023-11-21T06:54:27;4.03;;;2.83;;
19347;SDS011;9810;52.480;9.806;2023-11-21T06:56:56;5.07;;;2.57;;
19347;SDS011;9810;52.480;9.806;2023-11-21T06:59:24;3.97;;;2.70;;
19347;SDS011;9810;52.480;9.806;2023-11-21T07:01:51;6.10;;;3.60;;
19347;SDS011;9810;52.480;9.806;2023-11-21T07:04:18;5.40;;;3.40;;
19347;SDS011;9810;52.480;9.806;2023-11-21T07:06:46;5.00;;;3.60;;
19347;SDS011;9810;52.480;9.806;2023-11-21T07:09:13;4.70;;;3.50;;
19347;SDS011;9810;52.480;9.806;2023-11-21T07:11:40;5.90;;;3.50;;
19347;SDS011;9810;52.480;9.806;2023-11-21T07:14:09;7.80;;;4.37;;
19347;SDS011;9810;52.480;9.806;2023-11-21T07:16:37;6.05;;;4.18;;
19347;SDS011;9810;52.480;9.806;2023-11-21T07:19:04;6.33;;;4.83;;
19347;SDS011;9810;52.480;9.806;2023-11-21T07:21:32;6.97;;;5.00;;
19347;SDS011;9810;52.480;9.806;2023-11-21T07:23:59;6.07;;;4.70;;
19347;SDS011;9810;52.480;9.806;2023-11-21T07:26:27;8.70;;;4.47;;
19347;SDS011;9810;52.480;9.806;2023-11-21T07:28:54;9.77;;;5.77;;
19347;SDS011;9810;52.480;9.806;2023-11-21T07:31:23;9.53;;;4.83;;
19347;SDS011;9810;52.480;9.806;2023-11-21T07:33:50;7.03;;;5.13;;
19347;SDS011;9810;52.480;9.806;2023-11-21T07:36:18;9.73;;;6.70;;
19347;SDS011;9810;52.480;9.806;2023-11-21T07:38:46;7.40;;;5.73;;
19347;SDS011;9810;52.480;9.806;2023-11-21T07:41:13;8.23;;;5.60;;
19347;SDS011;9810;52.480;9.806;2023-11-21T07:43:41;8.83;;;5.70;;
19347;SDS011;9810;52.480;9.806;2023-11-21T07:46:08;7.77;;;5.10;;
19347;SDS011;9810;52.480;9.806;2023-11-21T07:48:39;10.70;;;6.10;;
19347;SDS011;9810;52.480;9.806;2023-11-21T07:51:07;9.70;;;6.33;;
19347;SDS011;9810;52.480;9.806;2023-11-21T07:53:34;8.83;;;5.70;;
19347;SDS011;9810;52.480;9.806;2023-11-21T07:56:02;12.37;;;7.07;;
19347;SDS011;9810;52.480;9.806;2023-11-21T07:58:30;17.30;;;7.33;;
19347;SDS011;9810;52.480;9.806;2023-11-21T08:00:58;11.07;;;7.07;;
19347;SDS011;9810;52.480;9.806;2023-11-21T08:03:25;13.10;;;7.33;;
19347;SDS011;9810;52.480;9.806;2023-11-21T08:05:56;9.90;;;7.00;;
19347;SDS011;9810;52.480;9.806;2023-11-21T08:08:23;11.33;;;6.03;;
19347;SDS011;9810;52.480;9.806;2023-11-21T08:10:51;12.57;;;6.80;;
19347;SDS011;9810;52.480;9.806;2023-11-21T08:13:21;7.23;;;5.20;;
19347;SDS011;9810;52.480;9.806;2023-11-21T08:15:48;13.90;;;7.07;;
19347;SDS011;9810;52.480;9.806;2023-11-21T08:18:16;10.10;;;6.75;;
19347;SDS011;9810;52.480;9.806;2023-11-21T08:20:43;15.50;;;7.13;;
19347;SDS011;9810;52.480;9.806;2023-11-21T08:23:14;11.50;;;7.13;;
19347;SDS011;9810;52.480;9.806;2023-11-21T08:25:42;9.40;;;5.37;;
19347;SDS011;9810;52.480;9.806;2023-11-21T08:28:10;9.93;;;6.20;;
19347;SDS011;9810;52.480;9.806;2023-11-21T08:30:39;10.53;;;6.00;;
19347;SDS011;9810;52.480;9.806;2023-11-21T08:33:07;8.97;;;5.90;;
19347;SDS011;9810;52.480;9.806;2023-11-21T08:35:34;7.63;;;5.47;;
19347;SDS011;9810;52.480;9.806;2023-11-21T08:38:02;9.47;;;5.40;;
19347;SDS011;9810;52.480;9.806;2023-11-21T08:40:31;11.20;;;5.73;;
19347;SDS011;9810;52.480;9.806;2023-11-21T08:42:59;9.13;;;6.03;;
19347;SDS011;9810;52.480;9.806;2023-11-21T08:45:59;9.37;;;5.97;;
19347;SDS011;9810;52.480;9.806;2023-11-21T08:48:40;9.77;;;5.80;;
19347;SDS011;9810;52.480;9.806;2023-11-21T08:51:16;9.07;;;5.90;;
19347;SDS011;9810;52.480;9.806;2023-11-21T08:54:16;8.43;;;6.03;;
19347;SDS011;9810;52.480;9.806;2023-11-21T08:56:50;7.07;;;4.70;;
19347;SDS011;9810;52.480;9.806;2023-11-21T09:31:16;5.93;;;3.93;;
19347;SDS011;9810;52.480;9.806;2023-11-21T09:33:50;8.33;;;5.30;;
19347;SDS011;9810;52.480;9.806;2023-11-21T09:36:21;6.13;;;4.60;;
19347;SDS011;9810;52.480;9.806;2023-11-21T09:41:52;7.03;;;4.67;;
19347;SDS011;9810;52.480;9.806;2023-11-21T10:40:11;5.28;;;3.63;;
19347;SDS011;9810;52.480;9.806;2023-11-21T10:42:38;4.27;;;3.53;;
19347;SDS011;9810;52.480;9.806;2023-11-21T10:45:06;5.70;;;3.93;;
19347;SDS011;9810;52.480;9.806;2023-11-21T10:47:38;4.60;;;3.77;;
19347;SDS011;9810;52.480;9.806;2023-11-21T10:50:05;5.90;;;3.43;;
19347;SDS011;9810;52.480;9.806;2023-11-21T10:52:36;5.23;;;3.53;;
19347;SDS011;9810;52.480;9.806;2023-11-21T10:55:14;6.17;;;4.13;;
19347;SDS011;9810;52.480;9.806;2023-11-21T10:57:42;6.70;;;3.93;;
19347;SDS011;9810;52.480;9.806;2023-11-21T11:00:11;4.30;;;2.53;;
19347;SDS011;9810;52.480;9.806;2023-11-21T11:02:39;3.77;;;2.70;;
19347;SDS011;9810;52.480;9.806;2023-11-21T11:05:06;6.50;;;5.00;;
19347;SDS011;9810;52.480;9.806;2023-11-21T11:07:36;5.90;;;4.20;;
19347;SDS011;9810;52.480;9.806;2023-11-21T11:10:05;5.67;;;3.77;;
19347;SDS011;9810;52.480;9.806;2023-11-21T11:12:35;6.00;;;2.80;;
19347;SDS011;9810;52.480;9.806;2023-11-21T11:15:03;4.37;;;3.40;;
19347;SDS011;9810;52.480;9.806;2023-11-21T11:17:33;6.77;;;3.30;;
19347;SDS011;9810;52.480;9.806;2023-11-21T11:20:00;7.77;;;3.77;;
19347;SDS011;9810;52.480;9.806;2023-11-21T11:22:34;3.90;;;3.27;;
19347;SDS011;9810;52.480;9.806;2023-11-21T11:25:10;6.47;;;3.90;;
19347;SDS011;9810;52.480;9.806;2023-11-21T11:27:47;4.27;;;3.07;;
19347;SDS011;9810;52.480;9.806;2023-11-21T11:30:17;7.00;;;2.93;;
19347;SDS011;9810;52.480;9.806;2023-11-21T11:32:49;8.23;;;3.20;;
19347;SDS011;9810;52.480;9.806;2023-11-21T11:35:23;4.97;;;2.90;;
19347;SDS011;9810;52.480;9.806;2023-11-21T11:37:52;4.60;;;3.40;;
19347;SDS011;9810;52.480;9.806;2023-11-21T11:40:19;3.53;;;3.10;;
19347;SDS011;9810;52.480;9.806;2023-11-21T11:42:58;3.50;;;3.20;;
19347;SDS011;9810;52.480;9.806;2023-11-21T11:45:26;4.70;;;3.77;;
19347;SDS011;9810;52.480;9.806;2023-11-21T11:47:59;4.00;;;3.23;;
19347;SDS011;9810;52.480;9.806;2023-11-21T11:50:27;6.87;;;3.60;;
19347;SDS011;9810;52.480;9.806;2023-11-21T11:52:55;6.67;;;3.47;;
19347;SDS011;9810;52.480;9.806;2023-11-21T11:55:22;8.00;;;3.90;;
19347;SDS011;9810;52.480;9.806;2023-11-21T11:57:51;6.73;;;3.67;;
19347;SDS011;9810;52.480;9.806;2023-11-21T12:00:22;4.00;;;2.87;;
19347;SDS011;9810;52.480;9.806;2023-11-21T12:02:51;6.70;;;3.90;;
19347;SDS011;9810;52.480;9.806;2023-11-21T12:05:19;4.90;;;3.03;;
19347;SDS011;9810;52.480;9.806;2023-11-21T12:07:48;6.80;;;3.43;;
19347;SDS011;9810;52.480;9.806;2023-11-21T12:10:18;5.00;;;3.30;;
19347;SDS011;9810;52.480;9.806;2023-11-21T12:12:45;4.80;;;3.13;;
19347;SDS011;9810;52.480;9.806;2023-11-21T12:15:13;5.70;;;3.20;;
19347;SDS011;9810;52.480;9.806;2023-11-21T12:17:42;6.53;;;3.20;;
19347;SDS011;9810;52.480;9.806;2023-11-21T12:20:10;4.47;;;3.42;;
19347;SDS011;9810;52.480;9.806;2023-11-21T12:22:42;6.17;;;3.63;;
19347;SDS011;9810;52.480;9.806;2023-11-21T12:25:10;4.80;;;3.77;;
19347;SDS011;9810;52.480;9.806;2023-11-21T12:27:41;6.03;;;3.87;;
19347;SDS011;9810;52.480;9.806;2023-11-21T12:30:09;9.57;;;3.83;;
19347;SDS011;9810;52.480;9.806;2023-11-21T12:32:38;6.43;;;3.77;;
19347;SDS011;9810;52.480;9.806;2023-11-21T12:35:09;8.63;;;5.17;;
19347;SDS011;9810;52.480;9.806;2023-11-21T12:37:36;7.07;;;4.73;;
19347;SDS011;9810;52.480;9.806;2023-11-21T12:40:05;5.87;;;4.67;;
19347;SDS011;9810;52.480;9.806;2023-11-21T12:42:33;5.53;;;4.20;;
19347;SDS011;9810;52.480;9.806;2023-11-21T12:45:10;5.50;;;4.53;;
19347;SDS011;9810;52.480;9.806;2023-11-21T12:47:45;6.60;;;4.63;;
19347;SDS011;9810;52.480;9.806;2023-11-21T12:50:15;5.50;;;3.53;;
19347;SDS011;9810;52.480;9.806;2023-11-21T12:52:47;4.60;;;3.90;;
19347;SDS011;9810;52.480;9.806;2023-11-21T12:55:15;5.00;;;3.43;;
19347;SDS011;9810;52.480;9.806;2023-11-21T12:57:43;5.00;;;3.43;;
19347;SDS011;9810;52.480;9.806;2023-11-21T13:00:11;3.60;;;3.20;;
19347;SDS011;9810;52.480;9.806;2023-11-21T13:02:50;4.57;;;3.53;;
19347;SDS011;9810;52.480;9.806;2023-11-21T13:39:42;4.80;;;3.23;;
19347;SDS011;9810;52.480;9.806;2023-11-21T13:42:14;5.85;;;4.07;;
19347;SDS011;9810;52.480;9.806;2023-11-21T13:44:42;3.50;;;2.70;;
19347;SDS011;9810;52.480;9.806;2023-11-21T13:47:13;7.90;;;3.70;;
19347;SDS011;9810;52.480;9.806;2023-11-21T13:49:40;9.40;;;4.10;;
19347;SDS011;9810;52.480;9.806;2023-11-21T13:52:07;6.33;;;3.10;;
19347;SDS011;9810;52.480;9.806;2023-11-21T13:54:40;5.80;;;3.63;;
19347;SDS011;9810;52.480;9.806;2023-11-21T13:57:09;8.33;;;3.77;;
19347;SDS011;9810;52.480;9.806;2023-11-21T13:59:36;4.37;;;3.33;;
19347;SDS011;9810;52.480;9.806;2023-11-21T14:02:04;3.50;;;2.37;;
19347;SDS011;9810;52.480;9.806;2023-11-21T14:04:42;5.30;;;3.10;;
19347;SDS011;9810;52.480;9.806;2023-11-21T14:07:23;7.80;;;3.40;;
19347;SDS011;9810;52.480;9.806;2023-11-21T14:09:57;5.03;;;3.30;;
19347;SDS011;9810;52.480;9.806;2023-11-21T14:12:27;4.40;;;3.47;;
19347;SDS011;9810;52.480;9.806;2023-11-21T14:14:59;5.97;;;3.37;;
19347;SDS011;9810;52.480;9.806;2023-11-21T14:17:28;3.53;;;2.97;;
19347;SDS011;9810;52.480;9.806;2023-11-21T14:19:55;4.33;;;3.37;;
19347;SDS011;9810;52.480;9.806;2023-11-21T14:22:22;6.93;;;2.97;;
19347;SDS011;9810;52.480;9.806;2023-11-21T14:24:50;3.43;;;2.90;;
19347;SDS011;9810;52.480;9.806;2023-11-21T14:27:20;4.90;;;3.20;;
19347;SDS011;9810;52.480;9.806;2023-11-21T14:29:49;6.73;;;4.07;;
19347;SDS011;9810;52.480;9.806;2023-11-21T14:32:17;3.70;;;2.63;;
19347;SDS011;9810;52.480;9.806;2023-11-21T14:34:45;9.13;;;3.50;;
19347;SDS011;9810;52.480;9.806;2023-11-21T14:37:13;4.43;;;2.60;;
19347;SDS011;9810;52.480;9.806;2023-11-21T14:39:40;4.73;;;2.80;;
19347;SDS011;9810;52.480;9.806;2023-11-21T14:42:11;2.80;;;2.60;;
19347;SDS011;9810;52.480;9.806;2023-11-21T14:44:40;3.40;;;3.10;;
19347;SDS011;9810;52.480;9.806;2023-11-21T14:47:09;5.83;;;2.90;;
19347;SDS011;9810;52.480;9.806;2023-11-21T14:49:41;6.27;;;4.00;;
19347;SDS011;9810;52.480;9.806;2023-11-21T14:52:17;2.67;;;2.47;;
19347;SDS011;9810;52.480;9.806;2023-11-21T14:54:57;4.83;;;3.13;;
19347;SDS011;9810;52.480;9.806;2023-11-21T14:57:45;4.40;;;3.07;;
19347;SDS011;9810;52.480;9.806;2023-11-21T15:00:15;4.17;;;2.97;;
19347;SDS011;9810;52.480;9.806;2023-11-21T15:03:04;10.33;;;3.73;;
19347;SDS011;9810;52.480;9.806;2023-11-21T15:05:32;5.13;;;3.10;;
19347;SDS011;9810;52.480;9.806;2023-11-21T15:08:00;4.33;;;3.43;;
19347;SDS011;9810;52.480;9.806;2023-11-21T15:10:39;4.88;;;3.75;;
19347;SDS011;9810;52.480;9.806;2023-11-21T15:13:11;5.77;;;4.30;;
19347;SDS011;9810;52.480;9.806;2023-11-21T15:15:39;3.90;;;2.87;;
19347;SDS011;9810;52.480;9.806;2023-11-21T15:18:08;2.57;;;2.37;;
19347;SDS011;9810;52.480;9.806;2023-11-21T15:20:37;4.57;;;2.67;;
19347;SDS011;9810;52.480;9.806;2023-11-21T15:23:04;2.73;;;2.50;;
19347;SDS011;9810;52.480;9.806;2023-11-21T15:25:31;4.83;;;2.83;;
19347;SDS011;9810;52.480;9.806;2023-11-21T15:28:00;4.00;;;2.60;;
19347;SDS011;9810;52.480;9.806;2023-11-21T15:30:27;5.50;;;2.47;;
19347;SDS011;9810;52.480;9.806;2023-11-21T15:32:56;4.43;;;2.57;;
19347;SDS011;9810;52.480;9.806;2023-11-21T15:35:25;3.90;;;2.80;;
19347;SDS011;9810;52.480;9.806;2023-11-21T15:37:53;5.77;;;2.50;;
19347;SDS011;9810;52.480;9.806;2023-11-21T15:43:22;3.65;;;2.78;;
19347;SDS011;9810;52.480;9.806;2023-11-21T15:45:49;2.90;;;2.50;;
19347;SDS011;9810;52.480;9.806;2023-11-21T15:48:17;5.13;;;2.97;;
19347;SDS011;9810;52.480;9.806;2023-11-21T15:50:46;3.83;;;2.70;;
19347;SDS011;9810;52.480;9.806;2023-11-21T15:53:16;5.53;;;2.83;;
19347;SDS011;9810;52.480;9.806;2023-11-21T15:55:43;3.83;;;3.30;;
19347;SDS011;9810;52.480;9.806;2023-11-21T15:58:10;5.10;;;3.53;;
19347;SDS011;9810;52.480;9.806;2023-11-21T16:00:37;6.63;;;3.13;;
19347;SDS011;9810;52.480;9.806;2023-11-21T16:03:06;5.00;;;3.60;;
19347;SDS011;9810;52.480;9.806;2023-11-21T16:05:36;5.37;;;3.50;;
19347;SDS011;9810;52.480;9.806;2023-11-21T16:08:07;3.07;;;2.77;;
19347;SDS011;9810;52.480;9.806;2023-11-21T16:17:08;3.10;;;2.80;;
19347;SDS011;9810;52.480;9.806;2023-11-21T16:19:37;2.67;;;2.30;;
19347;SDS011;9810;52.480;9.806;2023-11-21T16:22:04;5.80;;;3.03;;
19347;SDS011;9810;52.480;9.806;2023-11-21T16:24:33;3.03;;;2.60;;
19347;SDS011;9810;52.480;9.806;2023-11-21T16:27:05;9.27;;;2.80;;
19347;SDS011;9810;52.480;9.806;2023-11-21T16:48:12;5.63;;;2.40;;
19347;SDS011;9810;52.480;9.806;2023-11-21T16:50:54;3.90;;;2.97;;
19347;SDS011;9810;52.480;9.806;2023-11-21T16:56:43;4.67;;;2.70;;
19347;SDS011;9810;52.480;9.806;2023-11-21T16:59:10;4.60;;;2.70;;
19347;SDS011;9810;52.480;9.806;2023-11-21T17:01:38;4.23;;;2.67;;
19347;SDS011;9810;52.480;9.806;2023-11-21T17:04:07;3.90;;;2.30;;
19347;SDS011;9810;52.480;9.806;2023-11-21T17:06:39;2.77;;;2.17;;
19347;SDS011;9810;52.480;9.806;2023-11-21T17:09:06;3.70;;;2.17;;
19347;SDS011;9810;52.480;9.806;2023-11-21T17:11:35;2.80;;;2.07;;
19347;SDS011;9810;52.480;9.806;2023-11-21T17:14:02;5.47;;;2.20;;
19347;SDS011;9810;52.480;9.806;2023-11-21T17:16:31;3.87;;;2.70;;
19347;SDS011;9810;52.480;9.806;2023-11-21T17:18:58;4.37;;;2.40;;
19347;SDS011;9810;52.480;9.806;2023-11-21T17:21:29;3.37;;;2.50;;
19347;SDS011;9810;52.480;9.806;2023-11-21T17:23:56;4.77;;;2.73;;
19347;SDS011;9810;52.480;9.806;2023-11-21T17:26:23;3.90;;;2.40;;
19347;SDS011;9810;52.480;9.806;2023-11-21T17:28:51;3.23;;;2.20;;
19347;SDS011;9810;52.480;9.806;2023-11-21T17:31:19;9.97;;;2.87;;
19347;SDS011;9810;52.480;9.806;2023-11-21T17:33:47;4.63;;;2.67;;
19347;SDS011;9810;52.480;9.806;2023-11-21T17:36:14;3.17;;;2.83;;
19347;SDS011;9810;52.480;9.806;2023-11-21T17:38:43;4.53;;;2.90;;